createdAt,value
2018-09-27T00:01:18.915Z,90.32
2018-09-27T00:03:47.624Z,90.73
2018-09-27T00:06:16.276Z,90.81
2018-09-27T00:08:45.044Z,90.66
2018-09-27T00:11:13.742Z,90.41
2018-09-27T00:13:43.048Z,90.60
2018-09-27T00:16:11.724Z,91.05
2018-09-27T00:18:40.466Z,90.73
2018-09-27T00:21:09.059Z,90.94
2018-09-27T00:23:37.688Z,90.87
2018-09-27T00:26:06.956Z,90.89
2018-09-27T00:28:35.664Z,90.44
2018-09-27T00:31:04.459Z,90.52
2018-09-27T00:33:33.208Z,90.45
2018-09-27T00:36:01.894Z,90.64
2018-09-27T00:38:30.601Z,90.71
2018-09-27T00:40:59.387Z,91.11
2018-09-27T00:43:28.160Z,91.21
2018-09-27T00:45:57.635Z,91.33
2018-09-27T00:48:26.431Z,91.13
2018-09-27T00:50:55.019Z,91.44
2018-09-27T00:53:23.691Z,91.57
2018-09-27T00:55:52.417Z,91.97
2018-09-27T00:58:20.999Z,91.52
2018-09-27T01:00:49.646Z,91.31
2018-09-27T01:03:18.320Z,91.98
2018-09-27T01:05:47.063Z,92.07
2018-09-27T01:08:15.668Z,92.11
2018-09-27T01:10:44.298Z,91.91
2018-09-27T01:13:12.946Z,92.03
2018-09-27T01:15:41.698Z,92.05
2018-09-27T01:18:10.329Z,92.28
2018-09-27T01:20:38.997Z,91.82
2018-09-27T01:23:07.603Z,91.52
2018-09-27T01:25:36.236Z,91.74
2018-09-27T01:28:04.864Z,91.51
2018-09-27T01:30:33.502Z,91.97
2018-09-27T01:33:02.077Z,91.79
2018-09-27T01:35:30.709Z,91.37
2018-09-27T01:37:59.315Z,91.05
2018-09-27T01:40:27.951Z,92.16
2018-09-27T01:42:56.559Z,92.42
2018-09-27T01:45:25.187Z,92.91
2018-09-27T01:47:53.794Z,92.67
2018-09-27T01:50:22.411Z,92.57
2018-09-27T01:52:51.038Z,92.58
2018-09-27T01:55:19.643Z,92.55
2018-09-27T01:57:48.247Z,92.58
2018-09-27T02:00:16.954Z,92.18
2018-09-27T02:02:45.604Z,92.48
2018-09-27T02:05:14.224Z,92.51
2018-09-27T02:07:42.850Z,93.15
2018-09-27T02:10:11.588Z,93.16
2018-09-27T02:12:40.182Z,93.45
2018-09-27T02:15:08.815Z,93.38
2018-09-27T02:17:37.427Z,94.03
2018-09-27T02:20:06.077Z,93.99
2018-09-27T02:22:34.683Z,93.68
2018-09-27T02:25:04.399Z,94.06
2018-09-27T02:27:33.019Z,94.06
2018-09-27T02:30:01.669Z,94.00
2018-09-27T02:32:30.260Z,93.95
2018-09-27T02:34:58.884Z,94.06
2018-09-27T02:37:27.499Z,94.10
2018-09-27T02:39:56.134Z,93.88
2018-09-27T02:42:24.993Z,94.25
2018-09-27T02:44:53.640Z,94.00
2018-09-27T02:47:22.231Z,94.74
2018-09-27T02:49:50.858Z,94.86
2018-09-27T02:52:19.470Z,94.95
2018-09-27T02:54:48.114Z,94.83
2018-09-27T02:57:16.720Z,94.75
2018-09-27T02:59:45.311Z,94.68
2018-09-27T03:02:13.923Z,94.28
2018-09-27T03:04:42.527Z,94.55
2018-09-27T03:07:11.160Z,94.75
2018-09-27T03:09:39.801Z,94.73
2018-09-27T03:12:08.460Z,94.53
2018-09-27T03:14:37.067Z,94.33
2018-09-27T03:17:05.895Z,94.15
2018-09-27T03:19:34.499Z,93.78
2018-09-27T03:22:03.104Z,94.19
2018-09-27T03:24:31.706Z,93.86
2018-09-27T03:27:00.328Z,94.25
2018-09-27T03:29:28.920Z,94.41
2018-09-27T03:31:57.523Z,94.49
2018-09-27T03:34:26.188Z,94.10
2018-09-27T03:36:54.788Z,94.53
2018-09-27T03:39:23.504Z,94.31
2018-09-27T03:41:52.074Z,94.31
2018-09-27T03:44:20.839Z,93.90
2018-09-27T03:46:49.470Z,93.18
2018-09-27T03:49:18.071Z,93.68
2018-09-27T03:51:46.763Z,93.67
2018-09-27T03:54:15.366Z,93.71
2018-09-27T03:56:43.975Z,93.70
2018-09-27T03:59:12.599Z,93.81
2018-09-27T04:01:41.209Z,93.90
2018-09-27T04:04:09.850Z,93.87
2018-09-27T04:06:38.490Z,93.54
2018-09-27T04:09:08.124Z,93.16
2018-09-27T04:11:36.795Z,93.05
2018-09-27T04:14:05.403Z,93.45
2018-09-27T04:16:34.015Z,93.26
2018-09-27T04:19:02.862Z,92.96
2018-09-27T04:21:31.520Z,92.77
2018-09-27T04:24:00.152Z,93.15
2018-09-27T04:26:28.767Z,92.73
2018-09-27T04:28:57.377Z,92.98
2018-09-27T04:31:26.002Z,93.03
2018-09-27T04:33:54.635Z,92.43
2018-09-27T04:36:23.281Z,92.55
2018-09-27T04:38:52.046Z,92.80
2018-09-27T04:41:20.971Z,92.55
2018-09-27T04:43:49.623Z,92.91
2018-09-27T04:46:18.249Z,92.96
2018-09-27T04:48:46.906Z,92.58
2018-09-27T04:51:15.491Z,92.68
2018-09-27T04:53:44.148Z,92.77
2018-09-27T04:56:13.719Z,92.74
2018-09-27T04:58:42.335Z,92.52
2018-09-27T05:01:10.941Z,92.71
2018-09-27T05:03:39.676Z,92.82
2018-09-27T05:06:08.303Z,92.76
2018-09-27T05:08:36.934Z,92.53
2018-09-27T05:11:06.251Z,92.35
2018-09-27T05:13:35.050Z,92.62
2018-09-27T05:16:03.727Z,92.38
2018-09-27T05:18:32.639Z,92.39
2018-09-27T05:21:01.261Z,92.61
2018-09-27T05:23:29.893Z,92.19
2018-09-27T05:25:58.855Z,92.64
2018-09-27T05:28:27.631Z,92.63
2018-09-27T05:30:57.179Z,92.97
2018-09-27T05:33:25.913Z,92.46
2018-09-27T05:35:55.258Z,92.40
2018-09-27T05:38:23.935Z,92.74
2018-09-27T05:40:52.575Z,92.26
2018-09-27T05:43:22.071Z,92.26
2018-09-27T05:45:50.770Z,92.12
2018-09-27T05:48:19.463Z,92.15
2018-09-27T05:50:48.150Z,91.95
2018-09-27T05:53:16.770Z,92.06
2018-09-27T05:55:46.012Z,92.05
2018-09-27T05:58:14.649Z,92.13
2018-09-27T06:00:43.283Z,92.09
2018-09-27T06:03:11.904Z,92.22
2018-09-27T06:05:40.550Z,92.06
2018-09-27T06:08:09.169Z,91.76
2018-09-27T06:10:37.790Z,91.27
2018-09-27T06:13:06.576Z,90.84
2018-09-27T06:15:35.192Z,91.35
2018-09-27T06:18:03.820Z,90.75
2018-09-27T06:20:32.437Z,90.71
2018-09-27T06:23:01.064Z,90.81
2018-09-27T06:25:29.766Z,90.54
2018-09-27T06:27:58.404Z,90.26
2018-09-27T06:30:27.052Z,89.90
2018-09-27T06:32:55.668Z,89.56
2018-09-27T06:35:24.302Z,89.29
2018-09-27T06:37:52.954Z,89.01
2018-09-27T06:40:21.947Z,89.04
2018-09-27T06:42:50.596Z,88.98
2018-09-27T06:45:19.242Z,88.63
2018-09-27T06:47:47.883Z,88.33
2018-09-27T06:50:16.499Z,88.43
2018-09-27T06:52:45.128Z,88.29
2018-09-27T06:55:13.819Z,87.93
2018-09-27T06:57:42.357Z,87.75
2018-09-27T07:00:10.979Z,87.07
2018-09-27T07:02:39.665Z,86.70
2018-09-27T07:05:08.314Z,86.11
2018-09-27T07:07:36.932Z,85.98
2018-09-27T07:10:05.600Z,87.20
2018-09-27T07:12:34.294Z,86.59
2018-09-27T07:15:02.871Z,86.42
2018-09-27T07:17:31.503Z,86.27
2018-09-27T07:20:00.121Z,85.81
2018-09-27T07:22:28.714Z,85.92
2018-09-27T07:24:57.402Z,86.37
2018-09-27T07:27:26.035Z,85.40
2018-09-27T07:29:54.687Z,85.69
2018-09-27T07:32:23.343Z,85.14
2018-09-27T07:34:51.951Z,85.30
2018-09-27T07:37:20.579Z,85.82
2018-09-27T07:39:49.202Z,86.35
2018-09-27T07:42:17.847Z,86.71
2018-09-27T07:44:47.111Z,86.92
2018-09-27T07:47:15.748Z,86.10
2018-09-27T07:49:44.343Z,86.02
2018-09-27T07:52:12.972Z,86.26
2018-09-27T07:54:41.658Z,86.33
2018-09-27T07:57:10.318Z,86.66
2018-09-27T07:59:38.940Z,86.15
2018-09-27T08:02:08.053Z,85.38
2018-09-27T08:04:36.745Z,85.50
2018-09-27T08:07:05.714Z,86.19
2018-09-27T08:09:34.327Z,85.66
2018-09-27T08:12:02.959Z,85.26
2018-09-27T08:14:31.838Z,84.87
2018-09-27T08:17:00.511Z,85.54
2018-09-27T08:19:29.164Z,84.98
2018-09-27T08:21:57.804Z,85.34
2018-09-27T08:24:26.467Z,85.53
2018-09-27T08:26:55.096Z,85.44
2018-09-27T08:29:23.785Z,84.50
2018-09-27T08:31:52.414Z,83.68
2018-09-27T08:34:21.085Z,83.44
2018-09-27T08:36:49.671Z,83.53
2018-09-27T08:39:18.282Z,82.89
2018-09-27T08:41:47.059Z,82.67
2018-09-27T08:44:15.719Z,81.73
2018-09-27T08:46:44.338Z,81.82
2018-09-27T08:49:12.977Z,81.65
2018-09-27T08:51:41.804Z,81.56
2018-09-27T08:54:10.335Z,81.68
2018-09-27T08:56:38.992Z,81.89
2018-09-27T08:59:07.636Z,80.78
2018-09-27T09:01:36.552Z,80.69
2018-09-27T09:04:05.135Z,80.22
2018-09-27T09:06:33.771Z,79.93
2018-09-27T09:09:02.455Z,79.58
2018-09-27T09:11:31.103Z,78.29
2018-09-27T09:13:59.731Z,76.57
2018-09-27T09:16:28.458Z,75.15
2018-09-27T09:18:57.105Z,74.14
2018-09-27T09:21:25.784Z,73.41
2018-09-27T09:23:54.368Z,70.25
2018-09-27T09:26:22.968Z,69.93
2018-09-27T09:28:51.574Z,70.21
2018-09-27T09:31:20.250Z,71.15
2018-09-27T09:33:48.979Z,71.35
2018-09-27T09:36:17.683Z,70.48
2018-09-27T09:38:46.320Z,71.76
2018-09-27T09:41:14.953Z,70.92
2018-09-27T09:43:43.568Z,69.08
2018-09-27T09:46:12.196Z,70.68
2018-09-27T09:48:40.826Z,70.86
2018-09-27T09:51:09.442Z,69.43
2018-09-27T09:53:38.055Z,67.89
2018-09-27T09:56:07.016Z,65.75
2018-09-27T09:58:35.643Z,63.48
2018-09-27T10:01:04.291Z,60.94
2018-09-27T10:03:32.969Z,58.43
2018-09-27T10:06:01.580Z,57.15
2018-09-27T10:08:30.217Z,57.92
2018-09-27T10:10:58.868Z,56.37
2018-09-27T10:13:27.574Z,54.54
2018-09-27T10:15:56.296Z,53.56
2018-09-27T10:18:24.911Z,51.01
2018-09-27T10:20:53.544Z,51.15
2018-09-27T10:23:22.148Z,53.99
2018-09-27T10:25:50.828Z,54.18
2018-09-27T10:28:19.419Z,52.16
2018-09-27T10:30:48.039Z,57.82
2018-09-27T10:33:16.701Z,56.64
2018-09-27T10:35:45.351Z,56.82
2018-09-27T10:38:14.176Z,56.74
2018-09-27T10:40:42.801Z,55.91
2018-09-27T10:43:11.458Z,55.59
2018-09-27T10:45:40.144Z,56.24
2018-09-27T10:48:08.815Z,55.31
2018-09-27T10:50:37.432Z,52.42
2018-09-27T10:53:06.371Z,54.77
2018-09-27T10:55:35.000Z,54.87
2018-09-27T10:58:03.617Z,56.50
2018-09-27T11:00:32.255Z,55.11
2018-09-27T11:03:00.871Z,54.05
2018-09-27T11:05:29.531Z,53.76
2018-09-27T11:07:58.140Z,53.99
2018-09-27T11:10:26.835Z,53.41
2018-09-27T11:12:55.571Z,51.22
2018-09-27T11:15:24.215Z,51.64
2018-09-27T11:17:52.851Z,53.17
2018-09-27T11:20:21.552Z,52.44
2018-09-27T11:22:50.208Z,51.99
2018-09-27T11:25:18.866Z,51.38
2018-09-27T11:27:47.517Z,53.12
2018-09-27T11:30:21.599Z,53.06
2018-09-27T11:32:50.217Z,52.16
2018-09-27T11:35:18.892Z,51.08
2018-09-27T11:37:47.496Z,55.74
2018-09-27T11:40:16.135Z,57.41
2018-09-27T11:42:44.837Z,57.23
2018-09-27T11:45:13.379Z,56.56
2018-09-27T11:47:42.032Z,58.62
2018-09-27T11:50:10.758Z,56.82
2018-09-27T11:52:39.729Z,55.15
2018-09-27T11:55:08.489Z,54.50
2018-09-27T11:57:37.074Z,54.10
2018-09-27T12:00:06.555Z,56.14
2018-09-27T12:02:35.331Z,54.67
2018-09-27T12:05:04.126Z,56.37
2018-09-27T12:07:32.849Z,55.07
2018-09-27T12:10:01.545Z,55.46
2018-09-27T12:12:30.330Z,55.76
2018-09-27T12:14:59.065Z,55.79
2018-09-27T12:17:27.762Z,55.44
2018-09-27T12:19:56.441Z,55.92
2018-09-27T12:22:25.065Z,56.21
2018-09-27T12:24:53.731Z,55.43
2018-09-27T12:27:22.604Z,54.47
2018-09-27T12:29:51.329Z,54.18
2018-09-27T12:32:20.024Z,52.83
2018-09-27T12:34:48.650Z,54.63
2018-09-27T12:37:17.345Z,56.05
2018-09-27T12:39:46.114Z,55.93
2018-09-27T12:42:14.877Z,54.26
2018-09-27T12:44:43.345Z,54.98
2018-09-27T12:47:11.990Z,53.72
2018-09-27T12:49:40.654Z,53.80
2018-09-27T12:52:09.575Z,51.40
2018-09-27T12:54:38.052Z,52.54
2018-09-27T12:57:06.815Z,54.41
2018-09-27T12:59:35.467Z,53.73
2018-09-27T13:02:04.471Z,54.08
2018-09-27T13:04:32.845Z,54.34
2018-09-27T13:07:01.569Z,52.65
2018-09-27T13:09:30.352Z,52.12
2018-09-27T13:11:59.070Z,51.43
2018-09-27T13:14:27.698Z,51.90
2018-09-27T13:16:56.346Z,51.42
2018-09-27T13:19:25.283Z,53.15
2018-09-27T13:21:53.930Z,53.53
2018-09-27T13:24:22.593Z,53.12
2018-09-27T13:26:51.235Z,51.69
2018-09-27T13:29:19.835Z,51.17
2018-09-27T13:31:48.464Z,51.50
2018-09-27T13:34:17.156Z,55.70
2018-09-27T13:36:45.926Z,55.02
2018-09-27T13:39:14.574Z,54.71
2018-09-27T13:41:43.270Z,54.66
2018-09-27T13:44:11.901Z,55.34
2018-09-27T13:46:40.608Z,56.47
2018-09-27T13:49:09.330Z,57.66
2018-09-27T13:51:37.886Z,58.66
2018-09-27T13:54:06.547Z,59.36
2018-09-27T13:56:35.184Z,59.53
2018-09-27T13:59:03.837Z,59.25
2018-09-27T14:01:32.505Z,59.62
2018-09-27T14:04:01.574Z,60.12
2018-09-27T14:06:30.167Z,60.79
2018-09-27T14:08:58.812Z,60.55
2018-09-27T14:11:27.774Z,60.64
2018-09-27T14:13:56.455Z,61.59
2018-09-27T14:16:25.058Z,61.52
2018-09-27T14:18:53.801Z,62.77
2018-09-27T14:21:22.416Z,62.62
2018-09-27T14:23:51.073Z,62.94
2018-09-27T14:26:19.691Z,63.23
2018-09-27T14:28:48.291Z,63.35
2018-09-27T14:31:16.914Z,63.67
2018-09-27T14:33:45.708Z,64.17
2018-09-27T14:36:14.804Z,63.55
2018-09-27T14:38:43.498Z,63.72
2018-09-27T14:41:12.139Z,64.45
2018-09-27T14:43:40.803Z,64.48
2018-09-27T14:46:09.794Z,65.19
2018-09-27T14:48:38.644Z,64.29
2018-09-27T14:51:07.422Z,64.87
2018-09-27T14:53:36.160Z,65.62
2018-09-27T14:56:04.804Z,65.48
2018-09-27T14:58:33.493Z,66.12
2018-09-27T15:01:02.107Z,66.02
2018-09-27T15:03:30.762Z,65.90
2018-09-27T15:05:59.563Z,66.03
2018-09-27T15:08:28.203Z,65.94
2018-09-27T15:10:57.822Z,65.99
2018-09-27T15:13:26.733Z,66.48
2018-09-27T15:15:55.820Z,66.67
2018-09-27T15:18:24.463Z,66.30
2018-09-27T15:20:53.092Z,66.98
2018-09-27T15:23:21.724Z,67.04
2018-09-27T15:25:50.325Z,66.83
2018-09-27T15:28:19.047Z,66.98
2018-09-27T15:30:48.277Z,67.66
2018-09-27T15:33:16.385Z,67.64
2018-09-27T15:35:45.024Z,67.56
2018-09-27T15:38:13.890Z,67.44
2018-09-27T15:40:43.099Z,67.91
2018-09-27T15:43:11.763Z,67.88
2018-09-27T15:45:40.492Z,67.70
2018-09-27T15:48:09.243Z,68.21
2018-09-27T15:50:37.968Z,68.60
2018-09-27T15:53:06.683Z,67.96
2018-09-27T15:55:35.419Z,68.38
2018-09-27T15:58:04.151Z,68.35
2018-09-27T16:00:32.871Z,68.52
2018-09-27T16:03:01.519Z,68.97
2018-09-27T16:05:30.264Z,68.57
2018-09-27T16:07:58.943Z,68.98
2018-09-27T16:10:27.621Z,69.65
2018-09-27T16:12:56.331Z,68.97
2018-09-27T16:15:25.020Z,69.42
2018-09-27T16:17:53.775Z,69.77
2018-09-27T16:20:22.424Z,70.05
2018-09-27T16:22:51.040Z,70.10
2018-09-27T16:25:19.807Z,70.15
2018-09-27T16:27:48.550Z,70.44
2018-09-27T16:30:17.823Z,70.24
2018-09-27T16:32:46.552Z,70.68
2018-09-27T16:35:15.231Z,70.21
2018-09-27T16:37:44.168Z,70.22
2018-09-27T16:40:12.868Z,70.03
2018-09-27T16:42:41.618Z,70.31
2018-09-27T16:45:10.375Z,69.92
2018-09-27T16:47:38.997Z,70.33
2018-09-27T16:50:07.723Z,69.97
2018-09-27T16:52:36.763Z,70.09
2018-09-27T16:55:05.481Z,70.47
2018-09-27T16:57:34.167Z,70.88
2018-09-27T17:00:03.954Z,70.86
2018-09-27T17:02:32.822Z,70.89
2018-09-27T17:05:01.507Z,71.22
2018-09-27T17:07:30.228Z,71.43
2018-09-27T17:09:58.895Z,71.75
2018-09-27T17:12:27.795Z,71.72
2018-09-27T17:14:57.037Z,71.05
2018-09-27T17:17:25.692Z,71.17
2018-09-27T17:19:54.966Z,71.47
2018-09-27T17:22:23.646Z,71.67
2018-09-27T17:24:52.299Z,71.14
2018-09-27T17:27:21.152Z,71.34
2018-09-27T17:29:49.840Z,71.98
2018-09-27T17:32:18.502Z,72.38
2018-09-27T17:34:47.261Z,72.66
2018-09-27T17:37:15.794Z,72.62
2018-09-27T17:39:44.461Z,72.23
2018-09-27T17:42:13.296Z,72.19
2018-09-27T17:44:42.070Z,72.13
2018-09-27T17:47:10.882Z,73.28
2018-09-27T17:49:39.708Z,74.98
2018-09-27T17:52:08.540Z,74.88
2018-09-27T17:54:37.249Z,74.31
2018-09-27T17:57:06.464Z,74.54
2018-09-27T17:59:35.251Z,74.80
2018-09-27T18:02:03.867Z,74.65
2018-09-27T18:04:32.660Z,75.25
2018-09-27T18:07:02.449Z,75.31
2018-09-27T18:09:31.075Z,75.81
2018-09-27T18:11:59.831Z,74.75
2018-09-27T18:14:28.527Z,75.45
2018-09-27T18:16:57.364Z,74.95
2018-09-27T18:19:26.247Z,76.50
2018-09-27T18:21:54.973Z,74.89
2018-09-27T18:24:23.764Z,76.30
2018-09-27T18:26:52.555Z,76.24
2018-09-27T18:29:21.280Z,75.82
2018-09-27T18:31:49.992Z,76.36
2018-09-27T18:34:18.800Z,77.30
2018-09-27T18:36:47.457Z,76.01
2018-09-27T18:39:16.318Z,76.47
2018-09-27T18:41:45.048Z,75.99
2018-09-27T18:44:13.662Z,77.10
2018-09-27T18:46:42.363Z,77.10
2018-09-27T18:49:11.079Z,76.07
2018-09-27T18:51:39.747Z,76.07
2018-09-27T18:54:08.439Z,77.16
2018-09-27T18:56:37.275Z,76.60
2018-09-27T18:59:06.187Z,76.49
2018-09-27T19:01:36.018Z,76.07
2018-09-27T19:04:05.316Z,76.06
2018-09-27T19:06:34.013Z,76.57
2018-09-27T19:09:02.763Z,75.79
2018-09-27T19:11:31.487Z,75.41
2018-09-27T19:14:00.299Z,75.91
2018-09-27T19:16:28.935Z,76.00
2018-09-27T19:18:57.609Z,76.23
2018-09-27T19:21:29.964Z,75.75
2018-09-27T19:23:58.667Z,76.13
2018-09-27T19:26:27.371Z,74.87
2018-09-27T19:28:56.040Z,75.77
2018-09-27T19:31:24.767Z,75.09
2018-09-27T19:33:53.480Z,74.52
2018-09-27T19:36:22.212Z,75.13
2018-09-27T19:38:51.107Z,74.78
2018-09-27T19:41:19.827Z,74.70
2018-09-27T19:43:48.514Z,74.65
2018-09-27T19:46:17.378Z,75.42
2018-09-27T19:48:46.260Z,75.04
2018-09-27T19:51:14.965Z,74.81
2018-09-27T19:53:43.743Z,75.34
2018-09-27T19:56:12.500Z,75.31
2018-09-27T19:58:41.228Z,75.18
2018-09-27T20:01:09.881Z,74.36
2018-09-27T20:03:38.643Z,75.06
2018-09-27T20:06:07.370Z,74.56
2018-09-27T20:08:36.363Z,74.81
2018-09-27T20:11:05.202Z,74.56
2018-09-27T20:13:35.014Z,75.95
2018-09-27T20:16:04.786Z,75.44
2018-09-27T20:18:33.577Z,74.93
2018-09-27T20:21:02.679Z,74.62
2018-09-27T20:23:31.693Z,75.26
2018-09-27T20:26:00.452Z,75.65
2018-09-27T20:28:29.314Z,75.79
2018-09-27T20:30:57.991Z,75.54
2018-09-27T20:33:28.257Z,75.46
2018-09-27T20:35:56.896Z,74.90
2018-09-27T20:38:25.657Z,75.57
2018-09-27T20:40:54.996Z,75.47
2018-09-27T20:43:23.971Z,75.99
2018-09-27T20:45:52.900Z,75.67
2018-09-27T20:48:21.593Z,74.73
2018-09-27T20:50:50.377Z,74.81
2018-09-27T20:53:19.016Z,74.99
2018-09-27T20:55:47.692Z,74.31
2018-09-27T20:58:16.385Z,74.88
2018-09-27T21:00:45.070Z,75.18
2018-09-27T21:03:13.830Z,74.63
2018-09-27T21:05:42.465Z,74.65
2018-09-27T21:08:11.094Z,73.94
2018-09-27T21:10:39.831Z,74.82
2018-09-27T21:13:08.511Z,75.08
2018-09-27T21:15:37.229Z,74.57
2018-09-27T21:18:06.207Z,74.84
2018-09-27T21:20:34.833Z,75.16
2018-09-27T21:23:03.477Z,75.67
2018-09-27T21:25:32.128Z,75.51
2018-09-27T21:28:00.789Z,74.95
2018-09-27T21:30:29.401Z,74.99
2018-09-27T21:32:58.084Z,75.07
2018-09-27T21:35:26.799Z,75.40
2018-09-27T21:37:55.438Z,76.74
2018-09-27T21:40:24.064Z,75.87
2018-09-27T21:42:52.707Z,77.07
2018-09-27T21:45:21.473Z,76.78
2018-09-27T21:47:50.150Z,77.16
2018-09-27T21:50:18.931Z,77.64
2018-09-27T21:52:47.529Z,77.64
2018-09-27T21:55:16.159Z,77.38
2018-09-27T21:57:44.903Z,78.55
2018-09-27T22:00:13.583Z,78.67
2018-09-27T22:02:42.238Z,79.23
2018-09-27T22:05:10.895Z,79.98
2018-09-27T22:07:39.543Z,80.99
2018-09-27T22:10:08.184Z,81.96
2018-09-27T22:12:36.980Z,81.87
2018-09-27T22:15:05.867Z,82.67
2018-09-27T22:17:34.499Z,83.11
2018-09-27T22:20:03.496Z,83.85
2018-09-27T22:22:32.259Z,84.15
2018-09-27T22:25:00.880Z,84.17
2018-09-27T22:27:29.607Z,83.78
2018-09-27T22:29:58.227Z,84.03
2018-09-27T22:32:26.917Z,84.19
2018-09-27T22:34:55.606Z,84.71
2018-09-27T22:37:24.328Z,85.03
2018-09-27T22:39:53.940Z,85.30
2018-09-27T22:42:22.672Z,85.68
2018-09-27T22:44:51.312Z,86.57
2018-09-27T22:47:19.954Z,86.56
2018-09-27T22:49:48.609Z,86.72
2018-09-27T22:52:17.225Z,86.88
2018-09-27T22:54:45.851Z,87.99
2018-09-27T22:57:14.476Z,88.07
2018-09-27T22:59:43.153Z,88.42
2018-09-27T23:02:11.803Z,88.33
2018-09-27T23:04:40.448Z,88.82
2018-09-27T23:07:09.095Z,89.04
2018-09-27T23:09:37.711Z,89.55
2018-09-27T23:12:06.351Z,89.44
2018-09-27T23:14:35.985Z,89.65
2018-09-27T23:17:04.619Z,90.15
2018-09-27T23:19:33.275Z,89.75
2018-09-27T23:22:01.969Z,86.77
2018-09-27T23:24:30.643Z,85.27
2018-09-27T23:26:59.284Z,83.31
2018-09-27T23:29:27.929Z,83.73
2018-09-27T23:31:56.586Z,84.78
2018-09-27T23:34:25.197Z,84.02
2018-09-27T23:36:53.867Z,84.13
2018-09-27T23:39:22.488Z,84.37
2018-09-27T23:41:51.116Z,84.79
2018-09-27T23:44:19.747Z,85.26
2018-09-27T23:46:48.491Z,85.56
2018-09-27T23:49:17.130Z,85.80
2018-09-27T23:51:45.723Z,85.86
2018-09-27T23:54:14.324Z,86.71
2018-09-27T23:56:43.002Z,87.07
2018-09-27T23:59:11.599Z,86.82
